createdAt,value
2018-11-01T00:02:09.413Z,4.80
2018-11-01T00:04:37.793Z,4.77
2018-11-01T00:07:06.240Z,5.17
2018-11-01T00:09:34.585Z,3.27
2018-11-01T00:12:08.139Z,3.40
2018-11-01T00:14:46.304Z,4.13
2018-11-01T00:17:14.874Z,3.13
2018-11-01T00:19:43.272Z,4.80
2018-11-01T00:22:11.911Z,3.50
2018-11-01T00:24:40.422Z,2.93
2018-11-01T00:27:08.847Z,4.27
2018-11-01T00:29:42.177Z,4.57
2018-11-01T00:32:10.608Z,3.90
2018-11-01T00:34:44.418Z,5.13
2018-11-01T00:37:12.811Z,3.60
2018-11-01T00:39:44.829Z,3.40
2018-11-01T00:42:15.140Z,4.23
2018-11-01T00:44:43.587Z,3.63
2018-11-01T00:47:12.126Z,5.57
2018-11-01T00:49:40.526Z,5.17
2018-11-01T00:52:08.924Z,4.23
2018-11-01T00:54:43.992Z,3.33
2018-11-01T00:57:20.269Z,4.20
2018-11-01T00:59:48.652Z,4.30
2018-11-01T01:02:17.032Z,2.87
2018-11-01T01:04:45.488Z,5.03
2018-11-01T01:07:20.925Z,3.93
2018-11-01T01:09:56.748Z,3.70
2018-11-01T01:12:26.919Z,10.63
2018-11-01T01:14:55.466Z,5.50
2018-11-01T01:17:24.512Z,5.13
2018-11-01T01:19:53.010Z,6.07
2018-11-01T01:22:21.422Z,6.53
2018-11-01T01:24:52.841Z,4.20
2018-11-01T01:27:21.269Z,4.20
2018-11-01T01:29:49.604Z,4.30
2018-11-01T01:32:17.952Z,6.17
2018-11-01T01:34:46.506Z,6.27
2018-11-01T01:37:14.900Z,3.70
2018-11-01T01:39:54.621Z,4.20
2018-11-01T01:42:27.344Z,4.10
2018-11-01T01:45:04.495Z,4.90
2018-11-01T01:47:33.067Z,6.67
2018-11-01T01:50:11.315Z,3.93
2018-11-01T01:52:43.189Z,4.57
2018-11-01T01:55:11.601Z,4.30
2018-11-01T01:57:39.984Z,3.47
2018-11-01T02:00:20.202Z,3.07
2018-11-01T02:02:52.390Z,3.70
2018-11-01T02:05:20.768Z,5.03
2018-11-01T02:07:49.145Z,4.53
2018-11-01T02:10:19.111Z,3.00
2018-11-01T02:12:50.843Z,4.50
2018-11-01T02:15:20.468Z,4.83
2018-11-01T02:17:48.796Z,4.43
2018-11-01T02:20:18.524Z,4.50
2018-11-01T02:22:47.025Z,4.73
2018-11-01T02:25:19.097Z,4.37
2018-11-01T02:28:01.081Z,5.37
2018-11-01T02:30:29.413Z,8.73
2018-11-01T02:32:57.761Z,3.93
2018-11-01T02:35:26.310Z,3.73
2018-11-01T02:37:54.713Z,5.37
2018-11-01T02:40:29.111Z,4.17
2018-11-01T02:43:07.052Z,4.10
2018-11-01T02:45:35.417Z,3.43
2018-11-01T02:48:03.793Z,5.17
2018-11-01T02:50:32.176Z,3.93
2018-11-01T02:53:00.505Z,6.13
2018-11-01T02:55:29.909Z,5.63
2018-11-01T02:57:58.256Z,3.60
2018-11-01T03:00:26.627Z,3.50
2018-11-01T03:02:59.420Z,3.57
2018-11-01T03:05:37.496Z,4.87
2018-11-01T03:08:05.909Z,4.97
2018-11-01T03:10:34.310Z,4.17
2018-11-01T03:13:09.762Z,5.40
2018-11-01T03:15:38.129Z,5.93
2018-11-01T03:18:10.240Z,3.80
2018-11-01T03:20:58.229Z,4.20
2018-11-01T03:23:26.731Z,4.57
2018-11-01T03:25:55.232Z,3.70
2018-11-01T03:28:23.666Z,4.00
2018-11-01T03:30:52.184Z,3.90
2018-11-01T03:33:31.191Z,3.83
2018-11-01T03:36:32.064Z,5.00
2018-11-01T03:39:13.865Z,5.03
2018-11-01T03:41:43.278Z,5.90
2018-11-01T03:44:17.978Z,3.57
2018-11-01T03:46:46.494Z,4.27
2018-11-01T03:49:22.524Z,4.93
2018-11-01T03:51:51.224Z,4.20
2018-11-01T03:54:19.681Z,5.17
2018-11-01T03:56:48.201Z,7.17
2018-11-01T03:59:16.677Z,5.47
2018-11-01T04:01:45.260Z,5.50
2018-11-01T04:04:21.296Z,5.83
2018-11-01T04:06:49.714Z,6.10
2018-11-01T04:09:18.158Z,5.30
2018-11-01T04:11:46.615Z,4.60
2018-11-01T04:14:14.934Z,5.30
2018-11-01T04:16:49.887Z,5.07
2018-11-01T04:19:29.262Z,5.70
2018-11-01T04:22:07.256Z,4.77
2018-11-01T04:24:36.885Z,4.70
2018-11-01T04:27:05.579Z,5.17
2018-11-01T04:29:35.191Z,5.40
2018-11-01T04:32:08.219Z,5.43
2018-11-01T04:34:40.928Z,5.70
2018-11-01T04:37:09.310Z,6.10
2018-11-01T04:39:37.706Z,4.93
2018-11-01T04:42:06.274Z,4.87
2018-11-01T04:44:34.680Z,4.47
2018-11-01T04:47:09.813Z,7.60
2018-11-01T04:49:48.746Z,4.43
2018-11-01T04:52:20.424Z,4.77
2018-11-01T04:54:51.793Z,8.03
2018-11-01T04:57:28.425Z,5.60
2018-11-01T04:59:58.735Z,5.13
2018-11-01T05:02:32.452Z,8.27
2018-11-01T05:05:01.050Z,4.67
2018-11-01T05:07:29.405Z,5.60
2018-11-01T05:09:57.810Z,4.47
2018-11-01T05:12:26.263Z,7.00
2018-11-01T05:14:54.730Z,7.13
2018-11-01T05:17:31.295Z,4.77
2018-11-01T05:20:04.023Z,5.03
2018-11-01T05:22:32.433Z,6.10
2018-11-01T05:25:00.745Z,5.70
2018-11-01T05:27:29.150Z,8.33
2018-11-01T05:29:57.534Z,4.80
2018-11-01T05:32:34.788Z,5.87
2018-11-01T05:35:03.321Z,6.00
2018-11-01T05:37:31.768Z,6.17
2018-11-01T05:40:00.180Z,5.20
2018-11-01T05:42:29.590Z,6.97
2018-11-01T05:44:58.036Z,6.40
2018-11-01T05:47:30.276Z,7.00
2018-11-01T05:49:59.404Z,6.50
2018-11-01T05:52:27.768Z,5.73
2018-11-01T05:54:56.287Z,8.03
2018-11-01T05:57:24.637Z,5.43
2018-11-01T05:59:53.114Z,6.50
2018-11-01T06:02:40.843Z,7.53
2018-11-01T06:05:14.225Z,6.50
2018-11-01T06:07:47.226Z,5.70
2018-11-01T06:10:15.669Z,5.73
2018-11-01T06:12:44.024Z,6.00
2018-11-01T06:15:12.493Z,7.43
2018-11-01T06:17:46.213Z,10.20
2018-11-01T06:20:14.619Z,5.70
2018-11-01T06:22:47.012Z,6.17
2018-11-01T06:25:19.901Z,4.57
2018-11-01T06:27:48.274Z,4.60
2018-11-01T06:30:17.305Z,5.00
2018-11-01T06:32:46.689Z,8.57
2018-11-01T06:35:18.726Z,12.83
2018-11-01T06:37:47.253Z,8.00
2018-11-01T06:40:21.572Z,15.53
2018-11-01T06:42:49.992Z,12.10
2018-11-01T06:45:18.773Z,12.57
2018-11-01T06:47:47.178Z,14.43
2018-11-01T06:50:15.644Z,11.40
2018-11-01T06:52:51.945Z,11.87
2018-11-01T06:55:26.574Z,10.13
2018-11-01T06:58:02.583Z,9.03
2018-11-01T07:00:30.992Z,6.63
2018-11-01T07:02:59.442Z,7.20
2018-11-01T07:05:28.837Z,6.53
2018-11-01T07:08:03.437Z,6.47
2018-11-01T07:10:41.948Z,6.20
2018-11-01T07:13:10.514Z,7.70
2018-11-01T07:15:38.883Z,7.20
2018-11-01T07:18:07.292Z,9.27
2018-11-01T07:20:35.664Z,6.70
2018-11-01T07:23:04.079Z,12.90
2018-11-01T07:25:37.129Z,9.50
2018-11-01T07:28:05.766Z,8.50
2018-11-01T07:30:34.159Z,9.00
2018-11-01T07:33:02.614Z,5.90
2018-11-01T07:35:30.988Z,6.00
2018-11-01T07:38:09.653Z,4.60
2018-11-01T07:40:38.046Z,6.30
2018-11-01T07:43:06.596Z,5.13
2018-11-01T07:45:35.099Z,5.43
2018-11-01T07:48:03.611Z,6.27
2018-11-01T07:50:32.695Z,5.70
2018-11-01T07:53:01.198Z,6.93
2018-11-01T07:55:29.591Z,5.97
2018-11-01T07:57:57.962Z,6.30
2018-11-01T08:00:26.399Z,7.00
2018-11-01T08:02:54.809Z,8.10
2018-11-01T08:05:23.345Z,7.60
2018-11-01T08:07:53.336Z,7.07
2018-11-01T08:10:21.782Z,6.30
2018-11-01T08:12:50.202Z,9.17
2018-11-01T08:15:20.026Z,9.07
2018-11-01T08:17:50.656Z,15.57
2018-11-01T08:20:23.393Z,13.07
2018-11-01T08:22:51.681Z,7.60
2018-11-01T08:25:22.707Z,8.77
2018-11-01T08:28:16.471Z,8.70
2018-11-01T08:30:46.177Z,8.87
2018-11-01T08:33:17.560Z,11.07
2018-11-01T08:35:48.695Z,11.30
2018-11-01T08:38:19.669Z,8.30
2018-11-01T08:41:01.818Z,5.90
2018-11-01T08:43:34.368Z,8.47
2018-11-01T08:46:02.818Z,10.40
2018-11-01T08:48:32.946Z,8.90
2018-11-01T08:51:05.914Z,9.97
2018-11-01T08:53:34.540Z,8.70
2018-11-01T08:56:05.903Z,8.87
2018-11-01T08:58:40.554Z,9.93
2018-11-01T09:01:17.735Z,7.03
2018-11-01T09:03:50.585Z,10.00
2018-11-01T09:06:19.047Z,8.17
2018-11-01T09:08:49.751Z,8.90
2018-11-01T09:11:20.589Z,10.30
2018-11-01T09:13:52.629Z,12.30
2018-11-01T09:16:22.385Z,12.60
2018-11-01T09:18:52.243Z,13.53
2018-11-01T09:21:20.636Z,14.27
2018-11-01T09:23:51.550Z,11.53
2018-11-01T09:26:23.098Z,12.87
2018-11-01T09:28:52.060Z,12.50
2018-11-01T09:31:20.696Z,14.87
2018-11-01T09:33:49.316Z,10.13
2018-11-01T09:36:18.294Z,18.10
2018-11-01T09:38:50.793Z,15.57
2018-11-01T09:41:28.920Z,9.50
2018-11-01T09:44:00.886Z,9.20
2018-11-01T09:46:31.885Z,22.90
2018-11-01T09:49:05.314Z,17.83
2018-11-01T09:51:35.492Z,15.90
2018-11-01T09:54:07.165Z,15.63
2018-11-01T09:56:37.957Z,12.70
2018-11-01T09:59:07.323Z,13.70
2018-11-01T10:01:42.020Z,12.37
2018-11-01T10:04:15.254Z,11.10
2018-11-01T10:06:43.702Z,17.27
2018-11-01T10:09:12.072Z,11.10
2018-11-01T10:11:40.630Z,9.63
2018-11-01T10:14:09.541Z,11.17
2018-11-01T10:16:38.846Z,8.63
2018-11-01T10:19:20.673Z,9.03
2018-11-01T10:21:49.168Z,12.60
2018-11-01T10:24:29.984Z,8.27
2018-11-01T10:27:03.669Z,8.90
2018-11-01T10:29:32.135Z,9.30
2018-11-01T10:32:00.717Z,8.37
2018-11-01T10:34:29.257Z,10.40
2018-11-01T10:36:57.869Z,11.43
2018-11-01T10:39:31.076Z,12.63
2018-11-01T10:42:04.060Z,9.13
2018-11-01T10:44:36.584Z,13.47
2018-11-01T10:47:08.113Z,7.90
2018-11-01T10:49:45.817Z,7.67
2018-11-01T10:52:15.541Z,8.43
2018-11-01T10:54:43.938Z,8.23
2018-11-01T10:57:12.354Z,8.60
2018-11-01T10:59:45.291Z,7.90
2018-11-01T11:02:19.902Z,11.83
2018-11-01T11:04:49.265Z,8.10
2018-11-01T11:07:18.236Z,7.97
2018-11-01T11:09:46.686Z,7.93
2018-11-01T11:12:15.258Z,8.90
2018-11-01T11:14:43.990Z,11.37
2018-11-01T11:17:14.933Z,28.73
2018-11-01T11:19:43.485Z,14.83
2018-11-01T11:22:11.977Z,13.43
2018-11-01T11:24:41.152Z,12.87
2018-11-01T11:27:10.648Z,10.27
2018-11-01T11:29:39.184Z,9.77
2018-11-01T11:32:07.949Z,12.90
2018-11-01T11:34:36.418Z,9.67
2018-11-01T11:37:04.861Z,9.67
2018-11-01T11:39:37.308Z,9.50
2018-11-01T11:42:06.159Z,8.80
2018-11-01T11:44:35.741Z,10.13
2018-11-01T11:47:04.290Z,8.90
2018-11-01T11:49:33.010Z,8.30
2018-11-01T11:52:01.492Z,11.63
2018-11-01T11:54:29.959Z,16.30
2018-11-01T11:56:58.371Z,21.43
2018-11-01T11:59:26.981Z,19.13
2018-11-01T12:01:56.507Z,18.80
2018-11-01T12:04:24.912Z,12.03
2018-11-01T12:06:53.352Z,21.93
2018-11-01T12:09:21.827Z,11.10
2018-11-01T12:11:50.291Z,11.87
2018-11-01T12:14:18.739Z,11.13
2018-11-01T12:16:47.224Z,10.37
2018-11-01T12:19:21.908Z,12.73
2018-11-01T12:21:50.362Z,7.80
2018-11-01T12:24:18.850Z,11.20
2018-11-01T12:26:49.614Z,10.63
2018-11-01T12:29:19.901Z,11.40
2018-11-01T12:31:48.345Z,7.07
2018-11-01T12:34:16.798Z,10.17
2018-11-01T12:36:45.219Z,10.50
2018-11-01T12:39:14.717Z,9.40
2018-11-01T12:41:43.197Z,13.73
2018-11-01T12:44:11.519Z,11.70
2018-11-01T12:46:39.897Z,13.83
2018-11-01T12:49:08.312Z,12.93
2018-11-01T12:51:37.364Z,8.17
2018-11-01T12:54:06.243Z,9.73
2018-11-01T12:56:34.668Z,10.17
2018-11-01T12:59:03.032Z,11.37
2018-11-01T13:01:31.549Z,12.90
2018-11-01T13:04:00.083Z,8.60
2018-11-01T13:09:17.438Z,10.60
2018-11-01T13:11:46.038Z,7.17
2018-11-01T13:14:14.460Z,7.23
2018-11-01T13:16:43.719Z,8.90
2018-11-01T13:19:12.064Z,9.40
2018-11-01T13:21:40.515Z,8.17
2018-11-01T13:24:08.920Z,9.20
2018-11-01T13:26:37.334Z,8.00
2018-11-01T13:29:06.377Z,12.60
2018-11-01T13:31:34.821Z,8.40
2018-11-01T13:34:03.281Z,12.20
2018-11-01T13:36:31.692Z,15.97
2018-11-01T13:39:00.216Z,11.67
2018-11-01T13:41:29.051Z,12.33
2018-11-01T13:43:57.827Z,19.33
2018-11-01T13:46:26.291Z,19.83
2018-11-01T13:48:54.659Z,19.07
2018-11-01T13:51:23.023Z,18.00
2018-11-01T13:53:51.453Z,13.90
2018-11-01T13:56:20.835Z,12.03
2018-11-01T13:58:49.249Z,12.30
2018-11-01T14:01:17.663Z,14.40
2018-11-01T14:03:46.058Z,9.47
2018-11-01T14:06:14.475Z,12.87
2018-11-01T14:08:42.893Z,21.80
2018-11-01T14:11:11.312Z,15.67
2018-11-01T14:13:40.001Z,7.60
2018-11-01T14:16:08.317Z,9.80
2018-11-01T14:18:36.729Z,8.73
2018-11-01T14:21:05.112Z,9.23
2018-11-01T14:23:33.480Z,10.90
2018-11-01T14:26:01.872Z,8.10
2018-11-01T14:28:30.434Z,10.57
2018-11-01T14:30:58.874Z,7.43
2018-11-01T14:33:27.264Z,7.53
2018-11-01T14:35:55.622Z,8.17
2018-11-01T14:38:24.325Z,5.37
2018-11-01T14:40:52.734Z,10.40
2018-11-01T14:43:21.140Z,10.13
2018-11-01T14:45:49.564Z,8.10
2018-11-01T14:48:17.990Z,7.67
2018-11-01T14:50:46.375Z,9.33
2018-11-01T14:53:15.546Z,7.07
2018-11-01T14:55:44.675Z,8.60
2018-11-01T14:58:12.704Z,6.07
2018-11-01T15:00:40.364Z,8.07
2018-11-01T15:03:08.770Z,6.90
2018-11-01T15:05:37.102Z,8.13
2018-11-01T15:08:05.691Z,6.77
2018-11-01T15:10:34.041Z,5.27
2018-11-01T15:13:02.452Z,5.50
2018-11-01T15:15:30.820Z,6.27
2018-11-01T15:17:59.277Z,5.13
2018-11-01T15:20:27.722Z,5.10
2018-11-01T15:22:56.045Z,4.10
2018-11-01T15:25:24.447Z,3.83
2018-11-01T15:28:02.783Z,4.17
2018-11-01T15:30:31.256Z,3.57
2018-11-01T15:32:59.664Z,5.30
2018-11-01T15:35:28.050Z,5.50
2018-11-01T15:37:56.677Z,4.53
2018-11-01T15:40:25.133Z,4.03
2018-11-01T15:42:53.538Z,4.03
2018-11-01T15:45:22.696Z,4.03
2018-11-01T15:47:51.053Z,4.17
2018-11-01T15:50:19.443Z,3.97
2018-11-01T15:52:47.862Z,5.83
2018-11-01T15:55:16.323Z,6.50
2018-11-01T15:57:44.888Z,3.80
2018-11-01T16:00:14.181Z,2.60
2018-11-01T16:02:43.478Z,2.57
2018-11-01T16:05:13.104Z,3.23
2018-11-01T16:07:41.833Z,3.00
2018-11-01T16:10:11.272Z,3.77
2018-11-01T16:12:40.242Z,4.07
2018-11-01T16:15:10.554Z,4.90
2018-11-01T16:17:39.211Z,14.53
2018-11-01T16:20:08.751Z,5.30
2018-11-01T16:22:37.683Z,3.40
2018-11-01T16:25:06.467Z,3.13
2018-11-01T16:27:35.205Z,2.80
2018-11-01T16:30:03.638Z,3.93
2018-11-01T16:32:32.077Z,8.10
2018-11-01T16:35:00.560Z,6.60
2018-11-01T16:37:29.109Z,7.10
2018-11-01T16:39:57.665Z,11.50
2018-11-01T16:42:26.157Z,8.70
2018-11-01T16:44:54.643Z,13.60
2018-11-01T16:47:23.009Z,19.30
2018-11-01T16:49:51.430Z,53.00
2018-11-01T16:52:19.913Z,22.50
2018-11-01T16:54:48.604Z,14.87
2018-11-01T16:57:17.214Z,6.97
2018-11-01T16:59:45.827Z,11.30
2018-11-01T17:02:15.254Z,7.20
2018-11-01T17:04:43.886Z,11.40
2018-11-01T17:07:12.330Z,13.50
2018-11-01T17:09:40.873Z,10.60
2018-11-01T17:12:09.430Z,11.73
2018-11-01T17:14:37.885Z,9.93
2018-11-01T17:17:06.339Z,13.57
2018-11-01T17:19:34.862Z,14.97
2018-11-01T17:22:03.389Z,18.63
2018-11-01T17:24:31.791Z,14.30
2018-11-01T17:27:01.436Z,14.93
2018-11-01T17:29:29.918Z,18.00
2018-11-01T17:31:58.505Z,10.23
2018-11-01T17:34:31.263Z,12.40
2018-11-01T17:37:00.126Z,12.80
2018-11-01T17:42:14.153Z,17.03
2018-11-01T17:44:42.756Z,29.23
2018-11-01T17:47:11.329Z,16.17
2018-11-01T17:49:39.810Z,14.73
2018-11-01T17:52:08.188Z,17.93
2018-11-01T17:54:36.612Z,21.77
2018-11-01T17:57:05.164Z,22.27
2018-11-01T17:59:34.684Z,20.67
2018-11-01T18:02:03.306Z,21.60
2018-11-01T18:04:36.246Z,23.23
2018-11-01T18:07:04.934Z,23.57
2018-11-01T18:09:33.428Z,29.50
2018-11-01T18:12:01.840Z,35.13
2018-11-01T18:14:32.731Z,26.67
2018-11-01T18:17:03.746Z,27.57
2018-11-01T18:19:34.035Z,27.40
2018-11-01T18:22:02.517Z,28.27
2018-11-01T18:24:31.163Z,22.50
2018-11-01T18:26:59.841Z,23.53
2018-11-01T18:32:27.776Z,26.80
2018-11-01T18:34:57.874Z,22.47
2018-11-01T18:37:27.246Z,23.40
2018-11-01T18:40:00.861Z,32.30
2018-11-01T18:42:29.897Z,37.50
2018-11-01T18:44:59.539Z,38.53
2018-11-01T18:47:30.516Z,35.83
2018-11-01T18:53:10.171Z,23.77
2018-11-01T18:55:38.708Z,26.43
2018-11-01T18:58:07.222Z,21.67
2018-11-01T19:00:35.905Z,21.13
2018-11-01T19:03:04.633Z,22.53
2018-11-01T19:05:33.348Z,19.57
2018-11-01T19:08:02.573Z,18.40
2018-11-01T19:10:32.091Z,17.47
2018-11-01T19:13:01.863Z,19.27
2018-11-01T19:15:30.505Z,11.83
2018-11-01T19:17:59.061Z,13.03
2018-11-01T19:20:27.513Z,14.70
2018-11-01T19:22:56.345Z,15.40
2018-11-01T19:25:24.903Z,10.10
2018-11-01T19:27:54.346Z,11.43
2018-11-01T19:30:23.061Z,12.20
2018-11-01T19:32:51.603Z,10.50
2018-11-01T19:35:20.229Z,12.73
2018-11-01T19:37:48.683Z,11.00
2018-11-01T19:40:17.155Z,14.73
2018-11-01T19:42:45.711Z,12.30
2018-11-01T19:45:15.566Z,13.63
2018-11-01T19:47:44.378Z,9.50
2018-11-01T19:50:15.577Z,9.63
2018-11-01T19:52:48.259Z,14.80
2018-11-01T19:55:17.000Z,9.93
2018-11-01T19:57:46.079Z,8.87
2018-11-01T20:00:16.798Z,8.10
2018-11-01T20:02:46.176Z,11.63
2018-11-01T20:05:14.613Z,7.50
2018-11-01T20:07:43.081Z,10.60
2018-11-01T20:10:13.176Z,8.63
2018-11-01T20:12:42.533Z,9.30
2018-11-01T20:15:14.954Z,7.30
2018-11-01T20:17:44.073Z,9.30
2018-11-01T20:20:15.096Z,9.67
2018-11-01T20:22:45.485Z,8.70
2018-11-01T20:25:14.229Z,8.77
2018-11-01T20:27:43.277Z,7.73
2018-11-01T20:30:15.009Z,9.70
2018-11-01T20:32:44.067Z,6.70
2018-11-01T20:35:13.710Z,7.83
2018-11-01T20:37:42.513Z,9.20
2018-11-01T20:40:11.260Z,8.63
2018-11-01T20:42:40.364Z,7.63
2018-11-01T20:45:09.982Z,11.10
2018-11-01T20:47:38.768Z,8.20
2018-11-01T20:50:08.435Z,6.63
2018-11-01T20:52:37.058Z,8.43
2018-11-01T20:55:05.870Z,9.93
2018-11-01T20:57:34.821Z,7.97
2018-11-01T21:00:05.917Z,8.00
2018-11-01T21:02:34.888Z,10.87
2018-11-01T21:05:04.995Z,9.80
2018-11-01T21:07:33.581Z,9.83
2018-11-01T21:10:02.348Z,7.23
2018-11-01T21:12:31.188Z,9.93
2018-11-01T21:15:01.018Z,10.23
2018-11-01T21:17:29.772Z,11.10
2018-11-01T21:19:58.277Z,9.47
2018-11-01T21:22:28.342Z,11.17
2018-11-01T21:24:57.721Z,9.20
2018-11-01T21:27:26.344Z,9.23
2018-11-01T21:29:55.075Z,10.63
2018-11-01T21:32:24.006Z,8.80
2018-11-01T21:34:52.501Z,8.07
2018-11-01T21:37:20.993Z,8.67
2018-11-01T21:39:49.501Z,9.00
2018-11-01T21:42:18.070Z,8.30
2018-11-01T21:44:46.834Z,9.93
2018-11-01T21:47:15.492Z,6.67
2018-11-01T21:49:44.693Z,6.40
2018-11-01T21:52:13.611Z,9.07
2018-11-01T21:54:42.420Z,7.93
2018-11-01T21:57:11.069Z,9.73
2018-11-01T21:59:40.620Z,6.00
2018-11-01T22:02:10.843Z,7.43
2018-11-01T22:04:40.672Z,7.77
2018-11-01T22:07:09.400Z,6.20
2018-11-01T22:09:40.333Z,6.27
2018-11-01T22:12:10.003Z,6.60
2018-11-01T22:14:44.668Z,7.40
2018-11-01T22:17:13.202Z,5.77
2018-11-01T22:19:41.706Z,8.40
2018-11-01T22:22:10.198Z,6.30
2018-11-01T22:24:38.773Z,8.20
2018-11-01T22:27:08.401Z,10.33
2018-11-01T22:29:37.094Z,9.70
2018-11-01T22:32:05.683Z,7.33
2018-11-01T22:34:35.256Z,7.10
2018-11-01T22:37:03.822Z,7.80
2018-11-01T22:39:32.611Z,11.63
2018-11-01T22:42:02.780Z,6.40
2018-11-01T22:44:31.265Z,7.60
2018-11-01T22:46:59.785Z,8.67
2018-11-01T22:49:32.876Z,6.83
2018-11-01T22:52:01.630Z,6.73
2018-11-01T22:54:30.627Z,7.97
2018-11-01T22:56:59.349Z,9.40
2018-11-01T22:59:28.537Z,7.10
2018-11-01T23:02:08.676Z,6.23
2018-11-01T23:04:37.638Z,6.20
2018-11-01T23:07:09.287Z,7.70
2018-11-01T23:09:40.154Z,8.13
2018-11-01T23:12:19.628Z,9.13
2018-11-01T23:14:50.550Z,7.23
2018-11-01T23:17:20.565Z,6.83
2018-11-01T23:19:50.430Z,9.63
2018-11-01T23:22:20.069Z,7.63
2018-11-01T23:24:49.048Z,9.43
2018-11-01T23:27:20.734Z,9.37
2018-11-01T23:29:49.952Z,6.73
2018-11-01T23:32:28.284Z,7.30
2018-11-01T23:35:02.213Z,7.20
2018-11-01T23:37:40.013Z,7.03
2018-11-01T23:40:16.233Z,6.10
2018-11-01T23:42:50.763Z,7.53
2018-11-01T23:45:26.436Z,6.17
2018-11-01T23:47:59.343Z,7.60
2018-11-01T23:53:38.994Z,6.73
2018-11-01T23:56:07.793Z,7.40
2018-11-01T23:58:36.461Z,5.47
